Time;durP1;ratioP1;P1;durP2;ratioP2;P2;SDS_P1;SDS_P2;PMS_P1;PMS_P2;Temp;Humidity;BMP_temperature;BMP_pressure;BME280_temperature;BME280_humidity;BME280_pressure;Samples;Min_cycle;Max_cycle;Signal;HPM_P1;HPM_P2
2022/10/24 00:01:15;;;;;;;10.95;5.38;;;;;;;;;;5035331;28;20427;-81
2022/10/24 00:03:43;;;;;;;9.75;5.10;;;;;;;;;;5035637;28;20057;-82
2022/10/24 00:06:11;;;;;;;16.40;5.18;;;;;;;;;;5035070;28;20049;-81
2022/10/24 00:08:39;;;;;;;7.40;5.30;;;;;;;;;;5035419;28;20136;-83
2022/10/24 00:11:13;;;;;;;10.55;5.35;;;;;;;;;;5035199;28;20061;-81
2022/10/24 00:13:40;;;;;;;20.08;5.60;;;;;;;;;;5033176;28;20049;-82
2022/10/24 00:16:08;;;;;;;20.63;6.28;;;;;;;;;;5033976;28;20049;-81
2022/10/24 00:18:35;;;;;;;15.77;6.18;;;;;;;;;;5034940;28;20522;-81
2022/10/24 00:21:03;;;;;;;8.02;5.20;;;;;;;;;;5036373;28;20049;-81
2022/10/24 00:23:30;;;;;;;16.90;5.07;;;;;;;;;;5035780;28;20875;-82
2022/10/24 00:26:00;;;;;;;10.35;4.63;;;;;;;;;;5036014;28;20493;-82
2022/10/24 00:28:28;;;;;;;5.18;4.68;;;;;;;;;;5034303;28;20046;-81
2022/10/24 00:30:55;;;;;;;10.90;4.93;;;;;;;;;;5034495;28;20053;-82
2022/10/24 00:33:22;;;;;;;7.68;5.18;;;;;;;;;;5035337;28;20052;-82
2022/10/24 00:35:50;;;;;;;8.57;5.00;;;;;;;;;;5036144;28;20053;-82
2022/10/24 00:38:17;;;;;;;8.80;4.80;;;;;;;;;;5033983;28;20049;-82
2022/10/24 00:40:44;;;;;;;7.45;5.18;;;;;;;;;;5034741;28;20056;-81
2022/10/24 00:43:25;;;;;;;14.43;4.82;;;;;;;;;;5035651;28;20061;-82
2022/10/24 00:45:55;;;;;;;10.55;5.50;;;;;;;;;;5035190;28;20068;-81
2022/10/24 00:48:37;;;;;;;9.75;4.90;;;;;;;;;;5033763;28;20084;-81
2022/10/24 00:51:25;;;;;;;6.95;4.80;;;;;;;;;;5035680;28;20128;-82
2022/10/24 00:53:54;;;;;;;12.20;5.40;;;;;;;;;;5034522;28;20047;-82
2022/10/24 00:56:22;;;;;;;13.95;4.53;;;;;;;;;;5034771;28;20470;-81
2022/10/24 00:58:49;;;;;;;9.02;5.00;;;;;;;;;;5033311;28;20051;-83
2022/10/24 01:01:17;;;;;;;8.93;4.25;;;;;;;;;;5035049;28;20599;-82
2022/10/24 01:03:44;;;;;;;14.50;4.75;;;;;;;;;;5033796;28;20476;-82
2022/10/24 01:06:11;;;;;;;8.75;5.00;;;;;;;;;;5033212;28;20046;-82
2022/10/24 01:08:44;;;;;;;7.05;4.78;;;;;;;;;;5033283;28;20053;-82
2022/10/24 01:11:22;;;;;;;16.90;4.63;;;;;;;;;;5034732;28;20144;-81
2022/10/24 01:13:57;;;;;;;8.82;4.22;;;;;;;;;;5033315;28;20519;-82
2022/10/24 01:16:27;;;;;;;8.70;4.20;;;;;;;;;;5032983;28;20053;-82
2022/10/24 01:19:07;;;;;;;10.90;4.47;;;;;;;;;;5032994;28;20055;-82
2022/10/24 01:21:36;;;;;;;7.55;4.65;;;;;;;;;;5032637;28;20063;-81
2022/10/24 01:24:03;;;;;;;8.25;5.18;;;;;;;;;;5033849;28;20046;-81
2022/10/24 01:26:31;;;;;;;7.10;4.10;;;;;;;;;;5032987;28;20164;-81
2022/10/24 01:29:22;;;;;;;7.13;4.82;;;;;;;;;;5032516;28;20428;-82
2022/10/24 01:31:52;;;;;;;5.30;4.10;;;;;;;;;;5023229;28;20052;-81
2022/10/24 01:34:24;;;;;;;10.10;4.47;;;;;;;;;;5031952;28;20045;-82
2022/10/24 01:37:01;;;;;;;9.18;4.38;;;;;;;;;;5032136;28;20497;-81
2022/10/24 01:39:31;;;;;;;9.60;4.20;;;;;;;;;;5032020;28;20049;-81
2022/10/24 01:42:00;;;;;;;7.20;4.60;;;;;;;;;;5032026;28;20442;-82
2022/10/24 01:44:36;;;;;;;8.65;4.25;;;;;;;;;;5033073;28;20050;-82
2022/10/24 01:47:12;;;;;;;11.02;4.53;;;;;;;;;;5031867;28;20132;-82
2022/10/24 01:49:42;;;;;;;8.70;4.60;;;;;;;;;;5032165;28;20053;-82
2022/10/24 01:52:11;;;;;;;11.82;5.15;;;;;;;;;;5031684;28;20064;-81
2022/10/24 01:54:44;;;;;;;8.25;5.05;;;;;;;;;;5032235;28;20053;-81
2022/10/24 01:57:13;;;;;;;8.20;4.72;;;;;;;;;;5033086;28;20049;-82
2022/10/24 01:59:45;;;;;;;7.88;4.93;;;;;;;;;;5031815;28;20046;-81
2022/10/24 02:02:12;;;;;;;15.45;5.25;;;;;;;;;;5031703;28;20045;-81
2022/10/24 02:04:43;;;;;;;13.27;5.75;;;;;;;;;;5032504;28;20493;-81
2022/10/24 02:07:12;;;;;;;13.27;5.35;;;;;;;;;;5032786;28;20051;-81
2022/10/24 02:09:41;;;;;;;10.25;4.70;;;;;;;;;;5031771;28;20049;-82
2022/10/24 02:12:10;;;;;;;8.93;4.68;;;;;;;;;;5031518;28;20049;-81
2022/10/24 02:14:43;;;;;;;11.23;4.85;;;;;;;;;;5031358;28;20052;-82
2022/10/24 02:17:10;;;;;;;11.38;5.93;;;;;;;;;;5032797;28;20522;-81
2022/10/24 02:19:37;;;;;;;16.73;5.78;;;;;;;;;;5032597;28;20052;-81
2022/10/24 02:22:07;;;;;;;12.43;5.80;;;;;;;;;;5031577;28;20427;-80
2022/10/24 02:24:37;;;;;;;10.55;4.85;;;;;;;;;;5032656;28;20072;-82
2022/10/24 02:27:11;;;;;;;13.15;5.10;;;;;;;;;;5031730;28;20071;-82
2022/10/24 02:29:41;;;;;;;9.65;4.70;;;;;;;;;;5031440;28;20060;-81
2022/10/24 02:32:11;;;;;;;7.10;4.40;;;;;;;;;;5031211;28;20041;-81
2022/10/24 02:34:39;;;;;;;7.82;4.70;;;;;;;;;;5031201;28;20051;-82
2022/10/24 02:37:08;;;;;;;10.85;4.45;;;;;;;;;;5030907;28;20467;-81
2022/10/24 02:39:36;;;;;;;9.07;4.53;;;;;;;;;;5031287;28;20045;-81
2022/10/24 02:42:04;;;;;;;14.95;5.97;;;;;;;;;;5031443;28;20081;-81
2022/10/24 02:44:31;;;;;;;9.27;4.78;;;;;;;;;;5031122;28;20747;-82
2022/10/24 02:47:00;;;;;;;9.48;4.95;;;;;;;;;;5031243;28;20053;-81
2022/10/24 02:49:27;;;;;;;7.57;5.10;;;;;;;;;;5031362;28;20427;-81
2022/10/24 02:51:55;;;;;;;10.73;4.82;;;;;;;;;;5031363;28;20420;-82
2022/10/24 02:54:22;;;;;;;14.00;5.22;;;;;;;;;;5031006;28;20049;-81
2022/10/24 02:56:51;;;;;;;8.45;4.47;;;;;;;;;;5031229;28;20064;-81
2022/10/24 02:59:18;;;;;;;14.23;5.25;;;;;;;;;;5031271;28;20132;-81
2022/10/24 03:01:46;;;;;;;12.52;5.80;;;;;;;;;;5031071;28;20058;-81
2022/10/24 03:04:13;;;;;;;10.48;4.78;;;;;;;;;;5031915;28;20049;-82
2022/10/24 03:06:40;;;;;;;17.20;5.63;;;;;;;;;;5031161;28;20052;-81
2022/10/24 03:09:08;;;;;;;11.30;5.30;;;;;;;;;;5032153;28;20046;-81
2022/10/24 03:11:35;;;;;;;13.90;5.70;;;;;;;;;;5032130;28;20145;-81
2022/10/24 03:14:02;;;;;;;13.68;6.00;;;;;;;;;;5030807;28;20046;-82
2022/10/24 03:16:29;;;;;;;13.95;5.53;;;;;;;;;;5031905;28;20052;-81
2022/10/24 03:18:56;;;;;;;12.20;5.22;;;;;;;;;;5031080;28;20475;-81
2022/10/24 03:21:24;;;;;;;14.77;5.80;;;;;;;;;;5032207;28;20533;-81
2022/10/24 03:23:51;;;;;;;16.13;6.35;;;;;;;;;;5030874;28;20049;-81
2022/10/24 03:26:18;;;;;;;11.90;5.35;;;;;;;;;;5030549;28;20050;-82
2022/10/24 03:28:45;;;;;;;10.27;5.45;;;;;;;;;;5031074;28;20053;-81
2022/10/24 03:31:12;;;;;;;9.73;5.13;;;;;;;;;;5030955;28;20046;-81
2022/10/24 03:33:40;;;;;;;13.77;4.65;;;;;;;;;;5030847;28;20049;-81
2022/10/24 03:36:07;;;;;;;10.73;5.00;;;;;;;;;;5030723;28;20046;-82
2022/10/24 03:38:34;;;;;;;11.07;4.50;;;;;;;;;;5030601;28;20080;-81
2022/10/24 03:41:01;;;;;;;13.77;5.30;;;;;;;;;;5030938;28;20061;-81
2022/10/24 03:43:28;;;;;;;17.48;5.72;;;;;;;;;;5030544;28;20053;-81
2022/10/24 03:45:56;;;;;;;12.43;5.63;;;;;;;;;;5032523;28;20132;-82
2022/10/24 03:48:23;;;;;;;11.05;6.07;;;;;;;;;;5034823;28;20045;-82
2022/10/24 03:50:50;;;;;;;18.40;10.02;;;;;;;;;;5038061;28;20144;-82
2022/10/24 03:53:18;;;;;;;16.20;8.40;;;;;;;;;;5037553;28;20077;-82
2022/10/24 03:55:45;;;;;;;13.70;6.07;;;;;;;;;;5036174;28;20080;-82
2022/10/24 03:58:12;;;;;;;14.55;5.47;;;;;;;;;;5036668;28;20056;-81
2022/10/24 04:00:40;;;;;;;14.18;5.95;;;;;;;;;;5036905;28;20045;-82
2022/10/24 04:03:08;;;;;;;9.55;5.20;;;;;;;;;;5035542;28;20064;-82
2022/10/24 04:05:36;;;;;;;11.25;6.25;;;;;;;;;;5036976;28;20412;-81
2022/10/24 04:08:03;;;;;;;152.05;86.82;;;;;;;;;;5036063;28;20049;-82
2022/10/24 04:10:30;;;;;;;18.33;6.22;;;;;;;;;;5036061;28;20423;-82
2022/10/24 04:12:57;;;;;;;11.60;5.32;;;;;;;;;;5037210;28;20443;-81
2022/10/24 04:15:24;;;;;;;17.95;7.38;;;;;;;;;;5036078;28;20511;-82
2022/10/24 04:17:52;;;;;;;13.35;6.07;;;;;;;;;;5037146;28;20060;-83
2022/10/24 04:20:21;;;;;;;16.70;6.57;;;;;;;;;;5038321;28;20049;-82
2022/10/24 04:22:48;;;;;;;14.43;6.53;;;;;;;;;;5036996;28;20065;-82
2022/10/24 04:25:16;;;;;;;20.52;4.95;;;;;;;;;;5036183;28;20523;-82
2022/10/24 04:27:44;;;;;;;14.60;6.85;;;;;;;;;;5036010;28;20046;-81
2022/10/24 04:30:12;;;;;;;52.47;28.17;;;;;;;;;;5035346;28;20429;-82
2022/10/24 04:32:43;;;;;;;26.98;8.77;;;;;;;;;;5036742;28;20540;-82
2022/10/24 04:35:11;;;;;;;11.07;5.03;;;;;;;;;;5035241;28;20042;-82
2022/10/24 04:37:38;;;;;;;24.95;5.40;;;;;;;;;;5035937;28;20053;-82
2022/10/24 04:40:05;;;;;;;18.65;7.72;;;;;;;;;;5035078;28;20052;-82
2022/10/24 04:42:32;;;;;;;66.45;9.82;;;;;;;;;;5033821;28;20053;-81
2022/10/24 04:45:00;;;;;;;87.30;10.98;;;;;;;;;;5033353;28;20057;-82
2022/10/24 04:47:27;;;;;;;22.42;6.15;;;;;;;;;;5033238;28;20063;-81
2022/10/24 04:49:55;;;;;;;12.32;4.70;;;;;;;;;;5034690;28;20049;-81
2022/10/24 04:52:22;;;;;;;13.38;5.03;;;;;;;;;;5033448;28;20060;-82
2022/10/24 04:54:49;;;;;;;17.88;6.93;;;;;;;;;;5033295;28;20042;-82
2022/10/24 04:57:17;;;;;;;11.55;5.38;;;;;;;;;;5033484;28;20045;-82
2022/10/24 04:59:44;;;;;;;18.85;6.20;;;;;;;;;;5032525;28;20053;-81
2022/10/24 05:02:11;;;;;;;16.63;4.95;;;;;;;;;;5034704;28;20413;-82
2022/10/24 05:04:38;;;;;;;10.85;5.57;;;;;;;;;;5033019;28;20416;-84
2022/10/24 05:07:06;;;;;;;11.10;5.45;;;;;;;;;;5036007;28;20060;-83
2022/10/24 05:09:33;;;;;;;19.33;7.93;;;;;;;;;;5053036;28;20045;-83
2022/10/24 05:12:01;;;;;;;12.80;8.02;;;;;;;;;;5051002;28;20107;-84
2022/10/24 05:14:28;;;;;;;18.08;7.75;;;;;;;;;;5038496;28;20128;-82
2022/10/24 05:16:55;;;;;;;13.20;7.30;;;;;;;;;;5036781;28;20048;-84
2022/10/24 05:19:22;;;;;;;19.98;7.00;;;;;;;;;;5036369;28;20133;-83
2022/10/24 05:21:49;;;;;;;11.95;5.45;;;;;;;;;;5037810;28;20128;-82
2022/10/24 05:24:16;;;;;;;17.10;8.40;;;;;;;;;;5036907;28;20056;-83
2022/10/24 05:26:44;;;;;;;12.40;5.30;;;;;;;;;;5037922;28;20049;-83
2022/10/24 05:29:11;;;;;;;13.50;5.32;;;;;;;;;;5036484;28;20539;-82
2022/10/24 05:31:38;;;;;;;12.35;5.03;;;;;;;;;;5035847;28;20144;-82
2022/10/24 05:34:05;;;;;;;7.82;4.22;;;;;;;;;;5036215;28;20053;-83
2022/10/24 05:36:33;;;;;;;9.95;4.28;;;;;;;;;;5034910;28;20045;-83
2022/10/24 05:39:00;;;;;;;12.10;5.32;;;;;;;;;;5034963;28;20052;-83
2022/10/24 05:41:27;;;;;;;13.90;5.60;;;;;;;;;;5034256;28;20061;-83
2022/10/24 05:43:54;;;;;;;17.48;4.80;;;;;;;;;;5034288;28;20049;-83
2022/10/24 05:46:22;;;;;;;9.30;4.05;;;;;;;;;;5034501;28;20049;-82
2022/10/24 05:48:49;;;;;;;13.00;4.70;;;;;;;;;;5034282;28;20423;-82
2022/10/24 05:51:16;;;;;;;14.77;4.38;;;;;;;;;;5039105;28;20083;-85
2022/10/24 05:53:43;;;;;;;15.07;4.82;;;;;;;;;;5039311;28;20511;-84
2022/10/24 05:56:10;;;;;;;18.33;4.88;;;;;;;;;;5036514;28;20452;-82
2022/10/24 05:58:37;;;;;;;24.83;5.28;;;;;;;;;;5035816;28;20139;-83
2022/10/24 06:01:05;;;;;;;17.23;4.97;;;;;;;;;;5036280;28;20045;-82
2022/10/24 06:03:32;;;;;;;14.88;3.78;;;;;;;;;;5035687;28;20067;-82
2022/10/24 06:06:03;;;;;;;16.55;4.07;;;;;;;;;;5033100;28;20053;-83
2022/10/24 06:08:30;;;;;;;7.68;3.17;;;;;;;;;;5034425;28;20051;-83
2022/10/24 06:10:57;;;;;;;7.75;3.53;;;;;;;;;;5033484;28;20053;-83
2022/10/24 06:13:24;;;;;;;14.93;5.15;;;;;;;;;;5034524;28;20045;-82
2022/10/24 06:15:51;;;;;;;11.80;3.78;;;;;;;;;;5032911;28;20049;-81
2022/10/24 06:18:18;;;;;;;23.75;5.78;;;;;;;;;;5037510;28;20045;-81
2022/10/24 06:20:46;;;;;;;13.07;3.55;;;;;;;;;;5032906;28;20500;-83
2022/10/24 06:23:13;;;;;;;16.75;4.47;;;;;;;;;;5031474;28;20076;-82
2022/10/24 06:25:40;;;;;;;13.40;3.30;;;;;;;;;;5031445;28;20140;-82
2022/10/24 06:28:08;;;;;;;15.88;3.70;;;;;;;;;;5033462;28;20543;-83
2022/10/24 06:30:35;;;;;;;11.07;2.70;;;;;;;;;;5033486;28;20144;-83
2022/10/24 06:33:03;;;;;;;31.10;4.68;;;;;;;;;;5032209;28;20046;-84
2022/10/24 06:35:30;;;;;;;5.57;2.53;;;;;;;;;;5032386;28;20059;-83
2022/10/24 06:37:57;;;;;;;18.20;2.70;;;;;;;;;;5032202;28;20049;-84
2022/10/24 06:40:25;;;;;;;52.55;6.63;;;;;;;;;;5032349;28;20108;-84
2022/10/24 06:42:52;;;;;;;7.53;2.70;;;;;;;;;;5033116;28;20057;-82
2022/10/24 06:45:20;;;;;;;10.80;2.60;;;;;;;;;;5031877;28;20515;-84
2022/10/24 06:47:47;;;;;;;5.32;2.15;;;;;;;;;;5035506;28;20053;-84
2022/10/24 06:50:20;;;;;;;9.77;2.85;;;;;;;;;;5041182;28;20049;-84
2022/10/24 06:52:47;;;;;;;10.80;3.42;;;;;;;;;;5039842;28;20064;-83
2022/10/24 06:55:14;;;;;;;11.27;2.60;;;;;;;;;;5037613;28;20450;-83
2022/10/24 06:57:41;;;;;;;8.45;2.63;;;;;;;;;;5037476;28;20053;-84
2022/10/24 07:00:10;;;;;;;45.45;4.80;;;;;;;;;;5035221;28;20496;-84
2022/10/24 07:02:37;;;;;;;54.05;5.80;;;;;;;;;;5034438;28;20050;-83
2022/10/24 07:05:07;;;;;;;9.32;2.35;;;;;;;;;;5036710;28;20172;-84
2022/10/24 07:07:34;;;;;;;8.07;2.15;;;;;;;;;;5036696;28;20140;-83
2022/10/24 07:10:01;;;;;;;7.10;2.33;;;;;;;;;;5033632;28;20054;-84
2022/10/24 07:12:29;;;;;;;9.98;1.80;;;;;;;;;;5033637;28;20053;-83
2022/10/24 07:14:56;;;;;;;16.10;3.35;;;;;;;;;;5033386;28;20042;-82
2022/10/24 07:17:23;;;;;;;28.58;4.07;;;;;;;;;;5033473;28;20056;-83
2022/10/24 07:19:53;;;;;;;17.38;3.53;;;;;;;;;;5032646;28;20493;-85
2022/10/24 07:22:21;;;;;;;11.80;2.60;;;;;;;;;;5033197;28;20063;-82
2022/10/24 07:24:55;;;;;;;8.02;2.75;;;;;;;;;;5037933;28;20432;-83
2022/10/24 07:27:22;;;;;;;8.40;3.20;;;;;;;;;;5036432;28;20053;-82
2022/10/24 07:29:50;;;;;;;6.60;2.53;;;;;;;;;;5037152;28;20083;-83
2022/10/24 07:32:18;;;;;;;12.10;3.83;;;;;;;;;;5036289;28;20053;-82
2022/10/24 07:34:46;;;;;;;12.00;3.25;;;;;;;;;;5037121;28;20427;-83
2022/10/24 07:37:14;;;;;;;7.95;3.00;;;;;;;;;;5037077;28;20041;-82
2022/10/24 07:39:42;;;;;;;9.48;3.17;;;;;;;;;;5036151;28;20045;-84
2022/10/24 07:42:11;;;;;;;6.82;2.67;;;;;;;;;;5037205;28;20053;-83
2022/10/24 07:44:38;;;;;;;15.82;4.22;;;;;;;;;;5035559;28;20419;-82
2022/10/24 07:47:07;;;;;;;14.75;3.35;;;;;;;;;;5040351;28;20428;-82
2022/10/24 07:49:35;;;;;;;13.48;3.55;;;;;;;;;;5056606;28;20105;-83
2022/10/24 07:52:02;;;;;;;11.25;3.80;;;;;;;;;;5044293;28;20078;-83
2022/10/24 07:54:29;;;;;;;23.20;4.63;;;;;;;;;;5039812;28;20129;-84
2022/10/24 07:57:02;;;;;;;17.77;3.95;;;;;;;;;;5038727;28;20056;-83
2022/10/24 07:59:29;;;;;;;51.83;6.20;;;;;;;;;;5060038;22;20393;-90
2022/10/24 08:02:10;;;;;;;16.17;3.13;;;;;;;;;;5056676;28;20114;-89
2022/10/24 08:04:37;;;;;;;6.13;2.25;;;;;;;;;;5057045;28;20059;-92
2022/10/24 08:07:11;;;;;;;12.65;2.17;;;;;;;;;;5057687;28;20429;-89
2022/10/24 08:09:40;;;;;;;5.68;2.38;;;;;;;;;;5062244;28;20048;-91
2022/10/24 08:12:08;;;;;;;7.55;1.92;;;;;;;;;;5057017;28;20045;-91
2022/10/24 08:14:38;;;;;;;7.03;1.77;;;;;;;;;;5055980;28;20064;-92
2022/10/24 08:17:06;;;;;;;4.18;1.58;;;;;;;;;;5058563;28;20049;-93
2022/10/24 08:19:33;;;;;;;6.38;2.00;;;;;;;;;;5056592;28;20056;-93
2022/10/24 08:22:01;;;;;;;4.32;1.98;;;;;;;;;;5055473;28;20040;-93
2022/10/24 08:24:28;;;;;;;6.80;1.92;;;;;;;;;;5055016;28;20501;-93
2022/10/24 08:26:55;;;;;;;4.18;1.70;;;;;;;;;;5055843;28;20061;-91
2022/10/24 08:29:24;;;;;;;10.10;2.20;;;;;;;;;;5055626;28;20131;-90
2022/10/24 08:31:52;;;;;;;9.20;2.17;;;;;;;;;;5054748;28;20056;-90
2022/10/24 08:34:22;;;;;;;8.48;2.17;;;;;;;;;;5053751;28;20448;-90
2022/10/24 08:36:50;;;;;;;6.63;2.28;;;;;;;;;;5055033;28;20045;-90
2022/10/24 08:39:17;;;;;;;3.90;1.75;;;;;;;;;;5054601;28;20131;-86
2022/10/24 08:41:49;;;;;;;7.15;2.00;;;;;;;;;;5054886;28;20048;-90
2022/10/24 08:44:21;;;;;;;9.13;2.28;;;;;;;;;;5055668;28;20055;-89
2022/10/24 08:46:51;;;;;;;7.38;2.08;;;;;;;;;;5056013;28;20127;-91
2022/10/24 08:49:37;;;;;;;4.82;2.00;;;;;;;;;;5055487;28;20417;-90
2022/10/24 08:52:27;;;;;;;8.85;2.00;;;;;;;;;;5054660;28;20264;-89
2022/10/24 08:54:57;;;;;;;3.83;2.05;;;;;;;;;;5055242;28;20432;-90
2022/10/24 08:57:28;;;;;;;7.53;2.03;;;;;;;;;;5054333;28;20045;-91
2022/10/24 09:00:01;;;;;;;9.23;2.25;;;;;;;;;;5055102;28;20045;-90
2022/10/24 09:02:31;;;;;;;5.40;1.63;;;;;;;;;;5054306;28;20076;-91
2022/10/24 09:05:01;;;;;;;7.28;2.00;;;;;;;;;;5055378;28;20374;-88
2022/10/24 09:07:29;;;;;;;4.93;1.98;;;;;;;;;;5054164;28;20049;-91
2022/10/24 09:10:02;;;;;;;4.63;1.55;;;;;;;;;;5055123;28;20053;-91
2022/10/24 09:12:29;;;;;;;;;;;;;;;;;;5055394;28;20045;-91
2022/10/24 09:14:58;;;;;;;6.78;1.55;;;;;;;;;;5053488;28;19927;-91
2022/10/24 09:17:31;;;;;;;2.53;1.67;;;;;;;;;;5053947;28;20040;-89
2022/10/24 09:20:19;;;;;;;4.00;1.73;;;;;;;;;;5055225;28;20049;-92
2022/10/24 09:22:47;;;;;;;4.57;1.50;;;;;;;;;;5054826;28;20041;-93
2022/10/24 09:25:16;;;;;;;4.50;1.48;;;;;;;;;;5055306;28;20067;-91
2022/10/24 09:27:43;;;;;;;5.70;1.95;;;;;;;;;;5053671;28;20049;-91
2022/10/24 09:30:15;;;;;;;5.95;2.08;;;;;;;;;;5053662;28;20077;-90
2022/10/24 09:32:42;;;;;;;6.82;1.75;;;;;;;;;;5054892;28;20052;-92
2022/10/24 09:35:21;;;;;;;14.13;2.40;;;;;;;;;;5054392;28;20049;-91
2022/10/24 09:37:49;;;;;;;5.45;1.70;;;;;;;;;;5054393;28;20488;-91
2022/10/24 09:40:17;;;;;;;10.60;2.13;;;;;;;;;;5054236;28;20049;-91
2022/10/24 09:42:53;;;;;;;8.15;2.17;;;;;;;;;;5053437;28;20457;-88
2022/10/24 09:45:27;;;;;;;6.20;1.67;;;;;;;;;;5053126;28;20048;-92
2022/10/24 09:47:56;;;;;;;7.65;1.70;;;;;;;;;;5053491;28;20055;-91
2022/10/24 09:50:23;;;;;;;8.15;2.22;;;;;;;;;;5054186;28;20144;-92
2022/10/24 09:52:52;;;;;;;4.50;1.80;;;;;;;;;;5053355;28;20113;-92
2022/10/24 09:55:21;;;;;;;4.38;1.83;;;;;;;;;;5054244;28;20053;-90
2022/10/24 09:57:51;;;;;;;6.80;1.80;;;;;;;;;;5052956;28;20493;-91
2022/10/24 10:00:32;;;;;;;7.13;2.00;;;;;;;;;;5054272;28;20055;-93
2022/10/24 10:03:01;;;;;;;6.65;2.10;;;;;;;;;;5053184;28;20041;-92
2022/10/24 10:05:43;;;;;;;7.07;1.33;;;;;;;;;;5053657;28;20059;-94
2022/10/24 10:08:12;;;;;;;2.45;1.10;;;;;;;;;;5053810;28;20417;-92
2022/10/24 10:10:40;;;;;;;7.65;1.77;;;;;;;;;;5054142;28;20056;-93
2022/10/24 10:13:23;;;;;;;5.03;1.63;;;;;;;;;;5053057;28;20049;-90
2022/10/24 10:16:02;;;;;;;5.80;1.55;;;;;;;;;;5054132;28;20059;-94
2022/10/24 10:18:40;;;;;;;6.20;1.70;;;;;;;;;;5053183;28;20398;-90
2022/10/24 10:21:13;;;;;;;5.50;1.70;;;;;;;;;;5053237;28;20088;-93
2022/10/24 10:23:48;;;;;;;6.55;1.27;;;;;;;;;;5053458;28;20056;-93
2022/10/24 10:26:18;;;;;;;6.85;1.40;;;;;;;;;;5053146;28;20408;-92
2022/10/24 10:28:52;;;;;;;5.10;1.50;;;;;;;;;;5058662;28;20067;-92
2022/10/24 10:31:23;;;;;;;6.72;1.70;;;;;;;;;;5060941;28;20045;-93
2022/10/24 10:33:57;;;;;;;5.75;1.50;;;;;;;;;;5055297;28;20056;-93
2022/10/24 10:36:30;;;;;;;4.85;1.05;;;;;;;;;;5053887;28;20052;-94
2022/10/24 10:39:20;;;;;;;5.97;1.65;;;;;;;;;;5053887;28;20064;-94
2022/10/24 10:41:47;;;;;;;3.55;1.17;;;;;;;;;;5053091;28;20049;-90
2022/10/24 10:44:14;;;;;;;3.92;1.35;;;;;;;;;;5053851;28;20049;-91
2022/10/24 10:47:00;;;;;;;3.53;1.33;;;;;;;;;;5053430;28;20060;-93
2022/10/24 10:49:41;;;;;;;4.45;1.42;;;;;;;;;;5053428;28;20049;-89
2022/10/24 10:52:13;;;;;;;2.25;0.90;;;;;;;;;;5053745;28;20049;-93
2022/10/24 10:54:41;;;;;;;9.23;1.52;;;;;;;;;;5054636;28;20080;-93
2022/10/24 10:57:13;;;;;;;3.63;1.33;;;;;;;;;;5052929;28;20049;-91
2022/10/24 10:59:58;;;;;;;2.85;1.20;;;;;;;;;;5056248;28;20049;-93
2022/10/24 11:03:01;;;;;;;3.50;0.90;;;;;;;;;;5057519;28;20056;-94
2022/10/24 11:05:34;;;;;;;5.03;0.90;;;;;;;;;;5000587;28;20061;-92
2022/10/24 11:08:22;;;;;;;2.05;0.90;;;;;;;;;;5048769;28;20128;-88
2022/10/24 11:10:52;;;;;;;6.72;1.10;;;;;;;;;;5057077;28;20049;-93
2022/10/24 11:13:28;;;;;;;4.05;1.60;;;;;;;;;;5057135;28;20150;-93
2022/10/24 11:16:01;;;;;;;4.90;1.10;;;;;;;;;;5056594;28;20098;-92
2022/10/24 11:18:36;;;;;;;2.00;1.27;;;;;;;;;;5057793;28;20064;-93
2022/10/24 11:21:08;;;;;;;4.53;1.15;;;;;;;;;;5056651;28;20057;-92
2022/10/24 11:23:48;;;;;;;1.45;0.90;;;;;;;;;;5056503;28;20053;-92
2022/10/24 11:26:20;;;;;;;5.68;1.80;;;;;;;;;;5056978;28;20063;-90
2022/10/24 11:29:08;;;;;;;3.78;1.00;;;;;;;;;;5056677;28;20053;-93
2022/10/24 11:31:44;;;;;;;3.90;1.08;;;;;;;;;;5056314;28;20047;-91
2022/10/24 11:34:23;;;;;;;16.02;2.97;;;;;;;;;;5055879;28;20053;-91
2022/10/24 11:36:53;;;;;;;5.38;1.23;;;;;;;;;;5056326;28;20519;-92
2022/10/24 11:39:24;;;;;;;10.32;0.90;;;;;;;;;;5056220;28;20053;-91
2022/10/24 11:42:07;;;;;;;3.13;0.95;;;;;;;;;;5056373;28;20053;-91
2022/10/24 11:44:49;;;;;;;3.43;2.23;;;;;;;;;;5056192;28;20045;-91
2022/10/24 11:47:19;;;;;;;2.65;1.17;;;;;;;;;;5056340;28;20558;-94
2022/10/24 11:50:20;;;;;;;3.97;1.27;;;;;;;;;;5059712;28;20094;-93
2022/10/24 11:52:52;;;;;;;3.95;1.60;;;;;;;;;;5056354;28;20064;-94
2022/10/24 11:55:36;;;;;;;23.20;12.27;;;;;;;;;;5055512;28;20432;-90
2022/10/24 11:58:04;;;;;;;4.53;2.20;;;;;;;;;;5072345;28;20079;-93
2022/10/24 12:00:36;;;;;;;10.15;2.08;;;;;;;;;;5056677;28;20053;-92
2022/10/24 12:03:16;;;;;;;4.25;1.23;;;;;;;;;;5056370;28;20059;-95
2022/10/24 12:05:52;;;;;;;7.65;2.28;;;;;;;;;;5056215;28;20045;-93
2022/10/24 12:08:27;;;;;;;13.93;3.38;;;;;;;;;;5055552;28;20049;-95
2022/10/24 12:11:00;;;;;;;9.48;2.30;;;;;;;;;;5056825;28;20049;-94
2022/10/24 12:13:33;;;;;;;8.87;1.67;;;;;;;;;;5055785;28;20055;-92
2022/10/24 12:16:01;;;;;;;5.57;1.50;;;;;;;;;;5056779;28;20067;-94
2022/10/24 12:18:37;;;;;;;5.00;1.00;;;;;;;;;;5055691;28;20059;-94
2022/10/24 12:21:05;;;;;;;8.60;1.80;;;;;;;;;;5055943;28;20059;-94
2022/10/24 12:23:33;;;;;;;9.43;5.90;;;;;;;;;;5055815;28;20045;-94
2022/10/24 12:26:12;;;;;;;5.28;1.48;;;;;;;;;;5055903;28;20140;-92
2022/10/24 12:28:42;;;;;;;3.08;1.17;;;;;;;;;;5055341;28;20515;-93
2022/10/24 12:31:13;;;;;;;4.38;1.25;;;;;;;;;;5056128;28;20045;-95
2022/10/24 12:33:41;;;;;;;5.32;1.10;;;;;;;;;;5058169;28;20057;-94
2022/10/24 12:36:09;;;;;;;5.75;1.80;;;;;;;;;;5055754;28;20048;-89
2022/10/24 12:38:36;;;;;;;7.20;1.38;;;;;;;;;;5056711;28;20055;-93
2022/10/24 12:41:05;;;;;;;9.35;2.20;;;;;;;;;;5056181;28;20053;-94
2022/10/24 12:43:32;;;;;;;13.15;1.98;;;;;;;;;;5055332;28;20501;-93
2022/10/24 12:46:22;;;;;;;9.48;2.15;;;;;;;;;;5058813;28;20053;-94
2022/10/24 12:48:58;;;;;;;5.40;2.00;;;;;;;;;;5060930;28;20397;-95
2022/10/24 12:51:38;;;;;;;13.80;3.30;;;;;;;;;;5062151;28;20133;-92
2022/10/24 12:54:12;;;;;;;7.38;1.58;;;;;;;;;;5054967;28;20056;-93
2022/10/24 12:56:51;;;;;;;5.25;1.40;;;;;;;;;;5054387;28;20477;-93
2022/10/24 12:59:18;;;;;;;2.28;1.00;;;;;;;;;;5054495;28;20053;-92
2022/10/24 13:01:47;;;;;;;15.73;2.45;;;;;;;;;;5056517;28;20057;-94
2022/10/24 13:04:14;;;;;;;6.00;1.30;;;;;;;;;;5057895;28;20052;-94
2022/10/24 13:06:41;;;;;;;5.10;1.23;;;;;;;;;;5054831;28;20056;-91
2022/10/24 13:09:15;;;;;;;6.97;1.35;;;;;;;;;;5055467;28;20041;-95
2022/10/24 13:12:03;;;;;;;4.55;1.02;;;;;;;;;;5056585;28;20425;-94
2022/10/24 13:14:30;;;;;;;5.38;1.17;;;;;;;;;;5055542;28;20136;-95
2022/10/24 13:17:11;;;;;;;4.13;1.08;;;;;;;;;;5056246;28;20064;-94
2022/10/24 13:19:38;;;;;;;3.15;1.00;;;;;;;;;;5056428;28;20119;-95
2022/10/24 13:22:29;;;;;;;6.65;1.42;;;;;;;;;;5057167;28;20412;-93
2022/10/24 13:24:57;;;;;;;3.35;1.58;;;;;;;;;;5058724;28;20147;-96
2022/10/24 13:27:28;;;;;;;5.68;1.30;;;;;;;;;;5058447;28;20098;-92
2022/10/24 13:30:00;;;;;;;11.85;1.40;;;;;;;;;;5055528;28;20057;-95
2022/10/24 13:32:33;;;;;;;8.63;1.50;;;;;;;;;;5058058;28;20114;-94
2022/10/24 13:35:00;;;;;;;;;;;;;;;;;;5056639;28;20076;-95
2022/10/24 13:37:30;;;;;;;10.60;2.25;;;;;;;;;;5055290;28;20383;-95
2022/10/24 13:39:57;;;;;;;7.05;1.45;;;;;;;;;;5056581;28;20519;-93
2022/10/24 13:42:26;;;;;;;4.28;1.35;;;;;;;;;;5054049;28;20045;-95
2022/10/24 13:44:57;;;;;;;6.18;1.30;;;;;;;;;;5055115;28;20041;-95
2022/10/24 13:47:36;;;;;;;9.07;1.42;;;;;;;;;;5055428;28;20056;-94
2022/10/24 13:50:14;;;;;;;4.32;1.00;;;;;;;;;;5054961;28;20503;-96
2022/10/24 13:52:43;;;;;;;3.65;1.10;;;;;;;;;;5054173;28;20048;-95
2022/10/24 13:55:18;;;;;;;4.78;1.45;;;;;;;;;;5056443;28;20045;-95
2022/10/24 13:58:13;;;;;;;4.80;1.58;;;;;;;;;;5055025;28;20428;-93
2022/10/24 14:00:43;;;;;;;5.00;1.33;;;;;;;;;;5051733;28;20064;-94
2022/10/24 14:03:15;;;;;;;3.75;1.40;;;;;;;;;;5054569;28;20067;-95
2022/10/24 14:05:46;;;;;;;2.83;1.20;;;;;;;;;;5055721;28;20048;-94
2022/10/24 14:08:33;;;;;;;7.82;1.50;;;;;;;;;;5055059;28;20303;-95
2022/10/24 14:11:02;;;;;;;8.65;1.23;;;;;;;;;;5053991;28;20405;-90
2022/10/24 14:13:31;;;;;;;7.32;1.58;;;;;;;;;;5057450;28;20044;-96
2022/10/24 14:16:02;;;;;;;7.57;1.45;;;;;;;;;;5055874;28;20080;-94
2022/10/24 14:18:31;;;;;;;10.23;1.70;;;;;;;;;;5057160;28;20139;-95
2022/10/24 14:21:00;;;;;;;4.10;1.92;;;;;;;;;;5056121;28;20546;-92
2022/10/24 14:23:28;;;;;;;5.32;1.23;;;;;;;;;;5056247;28;20135;-92
2022/10/24 14:26:06;;;;;;;5.88;1.45;;;;;;;;;;5053494;28;20053;-95
2022/10/24 14:28:34;;;;;;;5.57;1.60;;;;;;;;;;5053844;28;20060;-95
2022/10/24 14:31:03;;;;;;;6.95;1.40;;;;;;;;;;5054946;28;20045;-93
2022/10/24 14:33:31;;;;;;;6.70;1.30;;;;;;;;;;5052933;28;20053;-94
2022/10/24 14:36:01;;;;;;;3.95;1.30;;;;;;;;;;5053193;28;20132;-94
2022/10/24 14:38:29;;;;;;;10.27;1.92;;;;;;;;;;5053310;28;20500;-91
2022/10/24 14:40:56;;;;;;;6.45;1.52;;;;;;;;;;5053090;28;20234;-94
2022/10/24 14:43:36;;;;;;;3.85;1.48;;;;;;;;;;5053229;28;20076;-95
2022/10/24 14:46:06;;;;;;;10.23;1.67;;;;;;;;;;5053049;28;20053;-93
2022/10/24 14:48:34;;;;;;;8.02;1.77;;;;;;;;;;5053588;28;20478;-93
2022/10/24 14:51:08;;;;;;;5.80;1.50;;;;;;;;;;5054469;28;20059;-94
2022/10/24 14:53:36;;;;;;;7.20;1.75;;;;;;;;;;5053021;28;20045;-94
2022/10/24 14:56:04;;;;;;;4.50;1.58;;;;;;;;;;5053054;28;20433;-91
2022/10/24 14:58:34;;;;;;;3.17;1.52;;;;;;;;;;5052400;28;20140;-94